sensor_id;sensor_type;location;lat;lon;timestamp;temperature;humidity
69595;DHT22;56800;52.142;5.364;2022-08-01T00:00:37;19.70;78.20
69595;DHT22;56800;52.142;5.364;2022-08-01T00:03:04;19.70;78.20
69595;DHT22;56800;52.142;5.364;2022-08-01T00:05:31;19.70;78.20
69595;DHT22;56800;52.142;5.364;2022-08-01T00:07:58;19.70;78.20
69595;DHT22;56800;52.142;5.364;2022-08-01T00:10:25;19.70;78.20
69595;DHT22;56800;52.142;5.364;2022-08-01T00:12:52;19.60;78.20
69595;DHT22;56800;52.142;5.364;2022-08-01T00:15:18;19.70;78.30
69595;DHT22;56800;52.142;5.364;2022-08-01T00:17:45;19.70;78.30
69595;DHT22;56800;52.142;5.364;2022-08-01T00:20:13;19.70;78.30
69595;DHT22;56800;52.142;5.364;2022-08-01T00:22:40;19.60;78.30
69595;DHT22;56800;52.142;5.364;2022-08-01T00:25:07;19.60;78.40
69595;DHT22;56800;52.142;5.364;2022-08-01T00:27:34;19.60;78.40
69595;DHT22;56800;52.142;5.364;2022-08-01T00:30:04;19.60;78.40
69595;DHT22;56800;52.142;5.364;2022-08-01T00:32:41;19.60;78.50
69595;DHT22;56800;52.142;5.364;2022-08-01T00:35:08;19.60;78.50
69595;DHT22;56800;52.142;5.364;2022-08-01T00:37:34;19.60;78.50
69595;DHT22;56800;52.142;5.364;2022-08-01T00:40:01;19.60;78.60
69595;DHT22;56800;52.142;5.364;2022-08-01T00:42:28;19.60;78.60
69595;DHT22;56800;52.142;5.364;2022-08-01T00:44:54;19.60;78.60
69595;DHT22;56800;52.142;5.364;2022-08-01T00:47:21;19.60;78.60
69595;DHT22;56800;52.142;5.364;2022-08-01T00:49:48;19.60;78.70
69595;DHT22;56800;52.142;5.364;2022-08-01T00:52:14;19.60;78.70
69595;DHT22;56800;52.142;5.364;2022-08-01T00:54:41;19.60;78.70
69595;DHT22;56800;52.142;5.364;2022-08-01T00:57:08;19.50;78.70
69595;DHT22;56800;52.142;5.364;2022-08-01T00:59:36;19.50;78.70
69595;DHT22;56800;52.142;5.364;2022-08-01T01:02:05;19.50;78.70
69595;DHT22;56800;52.142;5.364;2022-08-01T01:04:42;19.50;78.80
69595;DHT22;56800;52.142;5.364;2022-08-01T01:07:32;19.50;78.80
69595;DHT22;56800;52.142;5.364;2022-08-01T01:12:35;19.50;78.80
69595;DHT22;56800;52.142;5.364;2022-08-01T01:18:41;19.50;79.00
69595;DHT22;56800;52.142;5.364;2022-08-01T01:24:31;19.50;79.20
69595;DHT22;56800;52.142;5.364;2022-08-01T01:29:27;19.50;79.40
69595;DHT22;56800;52.142;5.364;2022-08-01T01:32:04;19.50;79.40
69595;DHT22;56800;52.142;5.364;2022-08-01T01:34:35;19.50;79.40
69595;DHT22;56800;52.142;5.364;2022-08-01T01:37:05;19.40;79.30
69595;DHT22;56800;52.142;5.364;2022-08-01T01:39:34;19.50;79.40
69595;DHT22;56800;52.142;5.364;2022-08-01T01:42:02;19.40;79.40
69595;DHT22;56800;52.142;5.364;2022-08-01T01:44:32;19.40;79.50
69595;DHT22;56800;52.142;5.364;2022-08-01T01:46:59;19.40;79.60
69595;DHT22;56800;52.142;5.364;2022-08-01T01:49:28;19.40;79.60
69595;DHT22;56800;52.142;5.364;2022-08-01T01:51:57;19.40;79.60
69595;DHT22;56800;52.142;5.364;2022-08-01T01:54:32;19.40;79.60
69595;DHT22;56800;52.142;5.364;2022-08-01T01:57:01;19.40;79.70
69595;DHT22;56800;52.142;5.364;2022-08-01T01:59:31;19.50;79.70
69595;DHT22;56800;52.142;5.364;2022-08-01T02:02:02;19.40;79.70
69595;DHT22;56800;52.142;5.364;2022-08-01T02:04:33;19.40;79.70
69595;DHT22;56800;52.142;5.364;2022-08-01T02:07:02;19.40;79.70
69595;DHT22;56800;52.142;5.364;2022-08-01T02:09:30;19.40;79.80
69595;DHT22;56800;52.142;5.364;2022-08-01T02:11:59;19.40;79.80
69595;DHT22;56800;52.142;5.364;2022-08-01T02:14:35;19.40;79.90
69595;DHT22;56800;52.142;5.364;2022-08-01T02:17:02;19.40;79.90
69595;DHT22;56800;52.142;5.364;2022-08-01T02:19:30;19.40;79.90
69595;DHT22;56800;52.142;5.364;2022-08-01T02:22:12;19.40;80.00
69595;DHT22;56800;52.142;5.364;2022-08-01T02:27:14;19.40;80.00
69595;DHT22;56800;52.142;5.364;2022-08-01T02:29:48;19.40;80.00
69595;DHT22;56800;52.142;5.364;2022-08-01T02:32:23;19.40;80.00
69595;DHT22;56800;52.142;5.364;2022-08-01T02:34:51;19.40;80.00
69595;DHT22;56800;52.142;5.364;2022-08-01T02:37:19;19.40;80.00
69595;DHT22;56800;52.142;5.364;2022-08-01T02:39:51;19.40;80.00
69595;DHT22;56800;52.142;5.364;2022-08-01T02:42:19;19.40;80.10
69595;DHT22;56800;52.142;5.364;2022-08-01T02:44:48;19.40;80.00
69595;DHT22;56800;52.142;5.364;2022-08-01T02:47:17;19.40;80.00
69595;DHT22;56800;52.142;5.364;2022-08-01T02:49:48;19.40;80.00
69595;DHT22;56800;52.142;5.364;2022-08-01T02:52:21;19.40;80.10
69595;DHT22;56800;52.142;5.364;2022-08-01T02:54:51;19.40;80.00
69595;DHT22;56800;52.142;5.364;2022-08-01T02:57:20;19.40;80.00
69595;DHT22;56800;52.142;5.364;2022-08-01T02:59:51;19.40;80.00
69595;DHT22;56800;52.142;5.364;2022-08-01T03:02:22;19.40;80.10
69595;DHT22;56800;52.142;5.364;2022-08-01T03:04:51;19.40;80.10
69595;DHT22;56800;52.142;5.364;2022-08-01T03:07:23;19.40;80.10
69595;DHT22;56800;52.142;5.364;2022-08-01T03:10:00;19.40;80.10
69595;DHT22;56800;52.142;5.364;2022-08-01T03:12:29;19.40;81.00
69595;DHT22;56800;52.142;5.364;2022-08-01T03:14:58;19.40;80.20
69595;DHT22;56800;52.142;5.364;2022-08-01T03:17:28;19.40;81.00
69595;DHT22;56800;52.142;5.364;2022-08-01T03:19:57;19.40;80.20
69595;DHT22;56800;52.142;5.364;2022-08-01T03:22:26;19.40;80.30
69595;DHT22;56800;52.142;5.364;2022-08-01T03:24:56;19.40;80.30
69595;DHT22;56800;52.142;5.364;2022-08-01T03:27:25;19.30;80.20
69595;DHT22;56800;52.142;5.364;2022-08-01T03:29:55;19.30;80.20
69595;DHT22;56800;52.142;5.364;2022-08-01T03:32:22;19.30;80.30
69595;DHT22;56800;52.142;5.364;2022-08-01T03:34:50;19.30;80.30
69595;DHT22;56800;52.142;5.364;2022-08-01T03:37:28;19.30;80.40
69595;DHT22;56800;52.142;5.364;2022-08-01T03:40:09;19.30;80.40
69595;DHT22;56800;52.142;5.364;2022-08-01T03:42:41;19.30;80.30
69595;DHT22;56800;52.142;5.364;2022-08-01T03:45:18;19.30;80.30
69595;DHT22;56800;52.142;5.364;2022-08-01T03:47:46;19.30;80.30
69595;DHT22;56800;52.142;5.364;2022-08-01T03:50:20;19.30;80.20
69595;DHT22;56800;52.142;5.364;2022-08-01T03:52:49;19.30;80.30
69595;DHT22;56800;52.142;5.364;2022-08-01T03:55:18;19.30;80.20
69595;DHT22;56800;52.142;5.364;2022-08-01T03:57:46;19.30;80.20
69595;DHT22;56800;52.142;5.364;2022-08-01T04:00:14;19.20;80.20
69595;DHT22;56800;52.142;5.364;2022-08-01T04:02:48;19.30;80.30
69595;DHT22;56800;52.142;5.364;2022-08-01T04:05:16;19.20;80.20
69595;DHT22;56800;52.142;5.364;2022-08-01T04:07:48;19.20;80.20
69595;DHT22;56800;52.142;5.364;2022-08-01T04:10:16;19.20;80.20
69595;DHT22;56800;52.142;5.364;2022-08-01T04:12:43;19.20;80.10
69595;DHT22;56800;52.142;5.364;2022-08-01T04:15:10;19.20;80.20
69595;DHT22;56800;52.142;5.364;2022-08-01T04:17:36;19.20;80.20
69595;DHT22;56800;52.142;5.364;2022-08-01T04:20:03;19.20;80.20
69595;DHT22;56800;52.142;5.364;2022-08-01T04:22:30;19.20;80.20
69595;DHT22;56800;52.142;5.364;2022-08-01T04:25:07;19.20;80.20
69595;DHT22;56800;52.142;5.364;2022-08-01T04:27:37;19.20;80.30
69595;DHT22;56800;52.142;5.364;2022-08-01T04:30:20;19.10;80.30
69595;DHT22;56800;52.142;5.364;2022-08-01T04:32:49;19.20;80.30
69595;DHT22;56800;52.142;5.364;2022-08-01T04:35:19;19.10;80.40
69595;DHT22;56800;52.142;5.364;2022-08-01T04:38:08;19.10;80.40
69595;DHT22;56800;52.142;5.364;2022-08-01T04:40:36;19.10;80.40
69595;DHT22;56800;52.142;5.364;2022-08-01T04:43:03;19.20;80.50
69595;DHT22;56800;52.142;5.364;2022-08-01T04:45:32;19.10;80.40
69595;DHT22;56800;52.142;5.364;2022-08-01T04:47:59;19.10;80.40
69595;DHT22;56800;52.142;5.364;2022-08-01T04:50:27;19.10;80.10
69595;DHT22;56800;52.142;5.364;2022-08-01T04:52:53;19.10;80.10
69595;DHT22;56800;52.142;5.364;2022-08-01T04:55:21;19.10;80.20
69595;DHT22;56800;52.142;5.364;2022-08-01T04:57:47;19.10;80.20
69595;DHT22;56800;52.142;5.364;2022-08-01T05:00:15;19.10;80.10
69595;DHT22;56800;52.142;5.364;2022-08-01T05:02:43;19.10;80.00
69595;DHT22;56800;52.142;5.364;2022-08-01T05:05:09;19.10;80.00
69595;DHT22;56800;52.142;5.364;2022-08-01T05:07:39;19.10;80.00
69595;DHT22;56800;52.142;5.364;2022-08-01T05:10:12;19.10;80.00
69595;DHT22;56800;52.142;5.364;2022-08-01T05:12:39;19.10;80.00
69595;DHT22;56800;52.142;5.364;2022-08-01T05:15:06;19.10;80.00
69595;DHT22;56800;52.142;5.364;2022-08-01T05:17:40;19.10;80.00
69595;DHT22;56800;52.142;5.364;2022-08-01T05:20:10;19.10;79.90
69595;DHT22;56800;52.142;5.364;2022-08-01T05:22:37;19.10;79.80
69595;DHT22;56800;52.142;5.364;2022-08-01T05:25:04;19.10;79.80
69595;DHT22;56800;52.142;5.364;2022-08-01T05:27:31;19.10;79.70
69595;DHT22;56800;52.142;5.364;2022-08-01T05:29:59;19.00;79.70
69595;DHT22;56800;52.142;5.364;2022-08-01T05:32:26;19.00;79.70
69595;DHT22;56800;52.142;5.364;2022-08-01T05:34:53;19.00;79.80
69595;DHT22;56800;52.142;5.364;2022-08-01T05:37:20;19.00;79.80
69595;DHT22;56800;52.142;5.364;2022-08-01T05:39:46;19.00;79.90
69595;DHT22;56800;52.142;5.364;2022-08-01T05:42:13;19.00;79.90
69595;DHT22;56800;52.142;5.364;2022-08-01T05:44:40;19.00;80.10
69595;DHT22;56800;52.142;5.364;2022-08-01T05:47:07;19.00;80.10
69595;DHT22;56800;52.142;5.364;2022-08-01T05:49:33;19.00;80.00
69595;DHT22;56800;52.142;5.364;2022-08-01T06:04:25;19.00;80.00
69595;DHT22;56800;52.142;5.364;2022-08-01T06:08:16;19.00;79.90
69595;DHT22;56800;52.142;5.364;2022-08-01T06:43:29;18.90;80.00
69595;DHT22;56800;52.142;5.364;2022-08-01T07:10:58;18.90;80.30
69595;DHT22;56800;52.142;5.364;2022-08-01T07:18:45;18.90;80.20
69595;DHT22;56800;52.142;5.364;2022-08-01T07:22:51;18.90;80.30
69595;DHT22;56800;52.142;5.364;2022-08-01T07:38:20;19.00;80.40
69595;DHT22;56800;52.142;5.364;2022-08-01T07:40:50;19.10;80.40
69595;DHT22;56800;52.142;5.364;2022-08-01T07:43:24;19.10;80.10
69595;DHT22;56800;52.142;5.364;2022-08-01T07:46:38;19.00;80.00
69595;DHT22;56800;52.142;5.364;2022-08-01T07:49:59;19.00;79.80
69595;DHT22;56800;52.142;5.364;2022-08-01T07:53:40;18.90;79.80
69595;DHT22;56800;52.142;5.364;2022-08-01T07:57:37;19.00;80.00
69595;DHT22;56800;52.142;5.364;2022-08-01T08:00:49;19.00;79.90
69595;DHT22;56800;52.142;5.364;2022-08-01T08:04:51;19.00;80.00
69595;DHT22;56800;52.142;5.364;2022-08-01T08:08:26;19.00;80.00
69595;DHT22;56800;52.142;5.364;2022-08-01T08:11:48;19.00;79.80
69595;DHT22;56800;52.142;5.364;2022-08-01T08:15:37;19.10;79.80
69595;DHT22;56800;52.142;5.364;2022-08-01T08:18:37;19.10;79.70
69595;DHT22;56800;52.142;5.364;2022-08-01T08:22:24;19.10;79.60
69595;DHT22;56800;52.142;5.364;2022-08-01T08:25:53;19.10;79.60
69595;DHT22;56800;52.142;5.364;2022-08-01T08:29:12;19.20;79.60
69595;DHT22;56800;52.142;5.364;2022-08-01T08:32:45;19.20;79.60
69595;DHT22;56800;52.142;5.364;2022-08-01T08:36:34;19.30;79.40
69595;DHT22;56800;52.142;5.364;2022-08-01T08:40:08;19.30;79.40
69595;DHT22;56800;52.142;5.364;2022-08-01T08:43:55;19.40;79.30
69595;DHT22;56800;52.142;5.364;2022-08-01T08:47:31;19.40;79.30
69595;DHT22;56800;52.142;5.364;2022-08-01T08:50:30;19.50;79.20
69595;DHT22;56800;52.142;5.364;2022-08-01T08:53:23;19.50;79.10
69595;DHT22;56800;52.142;5.364;2022-08-01T08:56:29;19.60;78.10
69595;DHT22;56800;52.142;5.364;2022-08-01T08:59:36;19.60;78.50
69595;DHT22;56800;52.142;5.364;2022-08-01T09:03:10;19.60;78.50
69595;DHT22;56800;52.142;5.364;2022-08-01T09:06:32;19.60;78.60
69595;DHT22;56800;52.142;5.364;2022-08-01T09:10:07;19.60;78.50
69595;DHT22;56800;52.142;5.364;2022-08-01T09:25:51;19.80;78.50
69595;DHT22;56800;52.142;5.364;2022-08-01T09:29:36;19.90;78.70
69595;DHT22;56800;52.142;5.364;2022-08-01T09:33:06;20.00;78.40
69595;DHT22;56800;52.142;5.364;2022-08-01T09:36:25;20.20;77.20
69595;DHT22;56800;52.142;5.364;2022-08-01T09:39:18;20.20;76.70
69595;DHT22;56800;52.142;5.364;2022-08-01T09:58:17;20.50;76.40
69595;DHT22;56800;52.142;5.364;2022-08-01T10:32:41;21.40;72.30
69595;DHT22;56800;52.142;5.364;2022-08-01T10:36:48;21.40;72.40
69595;DHT22;56800;52.142;5.364;2022-08-01T10:40:30;21.30;71.20
69595;DHT22;56800;52.142;5.364;2022-08-01T10:44:18;21.30;71.30
69595;DHT22;56800;52.142;5.364;2022-08-01T10:56:08;21.40;71.00
69595;DHT22;56800;52.142;5.364;2022-08-01T11:12:11;21.40;69.50
69595;DHT22;56800;52.142;5.364;2022-08-01T11:15:56;21.30;69.20
69595;DHT22;56800;52.142;5.364;2022-08-01T11:23:53;21.30;68.30
69595;DHT22;56800;52.142;5.364;2022-08-01T11:28:22;21.30;68.60
69595;DHT22;56800;52.142;5.364;2022-08-01T11:32:33;21.50;68.20
69595;DHT22;56800;52.142;5.364;2022-08-01T11:36:30;21.60;66.90
69595;DHT22;56800;52.142;5.364;2022-08-01T11:48:07;21.90;65.70
69595;DHT22;56800;52.142;5.364;2022-08-01T11:50:39;22.00;65.50
69595;DHT22;56800;52.142;5.364;2022-08-01T11:53:07;22.10;65.30
69595;DHT22;56800;52.142;5.364;2022-08-01T11:55:36;22.20;64.50
69595;DHT22;56800;52.142;5.364;2022-08-01T11:58:05;22.30;64.40
69595;DHT22;56800;52.142;5.364;2022-08-01T12:00:34;22.50;64.40
69595;DHT22;56800;52.142;5.364;2022-08-01T12:03:04;22.60;64.10
69595;DHT22;56800;52.142;5.364;2022-08-01T12:05:34;22.60;62.70
69595;DHT22;56800;52.142;5.364;2022-08-01T12:08:08;22.70;61.90
69595;DHT22;56800;52.142;5.364;2022-08-01T12:10:35;22.70;61.60
69595;DHT22;56800;52.142;5.364;2022-08-01T12:13:15;22.70;61.30
69595;DHT22;56800;52.142;5.364;2022-08-01T12:15:42;22.70;60.60
69595;DHT22;56800;52.142;5.364;2022-08-01T12:18:09;22.80;60.90
69595;DHT22;56800;52.142;5.364;2022-08-01T12:20:38;22.90;60.20
69595;DHT22;56800;52.142;5.364;2022-08-01T12:23:16;22.90;59.80
69595;DHT22;56800;52.142;5.364;2022-08-01T12:25:43;22.90;59.40
69595;DHT22;56800;52.142;5.364;2022-08-01T12:28:11;23.00;58.90
69595;DHT22;56800;52.142;5.364;2022-08-01T12:30:40;23.00;57.40
69595;DHT22;56800;52.142;5.364;2022-08-01T12:33:09;23.10;58.90
69595;DHT22;56800;52.142;5.364;2022-08-01T12:35:38;23.10;59.60
69595;DHT22;56800;52.142;5.364;2022-08-01T12:38:14;23.20;58.60
69595;DHT22;56800;52.142;5.364;2022-08-01T12:40:43;23.30;57.00
69595;DHT22;56800;52.142;5.364;2022-08-01T12:43:16;23.40;56.90
69595;DHT22;56800;52.142;5.364;2022-08-01T12:45:58;23.50;57.30
69595;DHT22;56800;52.142;5.364;2022-08-01T12:48:27;23.50;55.60
69595;DHT22;56800;52.142;5.364;2022-08-01T12:50:55;23.60;53.80
69595;DHT22;56800;52.142;5.364;2022-08-01T12:53:24;23.60;53.50
69595;DHT22;56800;52.142;5.364;2022-08-01T12:55:54;23.70;52.60
69595;DHT22;56800;52.142;5.364;2022-08-01T12:58:33;23.80;51.80
69595;DHT22;56800;52.142;5.364;2022-08-01T13:01:09;23.90;51.40
69595;DHT22;56800;52.142;5.364;2022-08-01T13:03:37;24.00;51.20
69595;DHT22;56800;52.142;5.364;2022-08-01T13:06:14;24.10;51.10
69595;DHT22;56800;52.142;5.364;2022-08-01T13:08:44;24.10;50.00
69595;DHT22;56800;52.142;5.364;2022-08-01T13:11:13;24.20;50.70
69595;DHT22;56800;52.142;5.364;2022-08-01T13:13:49;24.30;49.80
69595;DHT22;56800;52.142;5.364;2022-08-01T13:16:21;24.30;48.90
69595;DHT22;56800;52.142;5.364;2022-08-01T13:19:04;24.30;49.70
69595;DHT22;56800;52.142;5.364;2022-08-01T13:21:31;24.50;49.80
69595;DHT22;56800;52.142;5.364;2022-08-01T13:24:26;24.70;49.80
69595;DHT22;56800;52.142;5.364;2022-08-01T13:29:37;25.10;49.70
69595;DHT22;56800;52.142;5.364;2022-08-01T13:35:10;25.50;48.50
69595;DHT22;56800;52.142;5.364;2022-08-01T13:37:40;25.70;47.60
69595;DHT22;56800;52.142;5.364;2022-08-01T13:40:09;25.90;47.50
69595;DHT22;56800;52.142;5.364;2022-08-01T13:42:37;26.00;46.70
69595;DHT22;56800;52.142;5.364;2022-08-01T13:45:04;26.20;46.00
69595;DHT22;56800;52.142;5.364;2022-08-01T13:47:40;26.30;45.40
69595;DHT22;56800;52.142;5.364;2022-08-01T13:50:27;26.50;44.30
69595;DHT22;56800;52.142;5.364;2022-08-01T13:52:54;26.60;45.60
69595;DHT22;56800;52.142;5.364;2022-08-01T13:55:21;26.80;45.50
69595;DHT22;56800;52.142;5.364;2022-08-01T13:57:47;27.00;45.10
69595;DHT22;56800;52.142;5.364;2022-08-01T14:00:14;27.10;45.40
69595;DHT22;56800;52.142;5.364;2022-08-01T14:02:41;27.20;44.50
69595;DHT22;56800;52.142;5.364;2022-08-01T14:05:08;27.30;43.90
69595;DHT22;56800;52.142;5.364;2022-08-01T14:07:35;27.40;42.50
69595;DHT22;56800;52.142;5.364;2022-08-01T14:10:04;27.40;42.50
69595;DHT22;56800;52.142;5.364;2022-08-01T14:12:45;27.50;41.90
69595;DHT22;56800;52.142;5.364;2022-08-01T14:15:13;27.60;40.90
69595;DHT22;56800;52.142;5.364;2022-08-01T14:17:51;27.60;40.70
69595;DHT22;56800;52.142;5.364;2022-08-01T14:20:18;27.70;39.50
69595;DHT22;56800;52.142;5.364;2022-08-01T14:22:46;27.70;40.00
69595;DHT22;56800;52.142;5.364;2022-08-01T14:25:13;27.70;39.60
69595;DHT22;56800;52.142;5.364;2022-08-01T14:27:59;27.80;39.90
69595;DHT22;56800;52.142;5.364;2022-08-01T14:30:26;27.90;40.30
69595;DHT22;56800;52.142;5.364;2022-08-01T14:32:53;27.90;39.40
69595;DHT22;56800;52.142;5.364;2022-08-01T14:35:19;27.90;38.60
69595;DHT22;56800;52.142;5.364;2022-08-01T14:37:46;27.90;38.80
69595;DHT22;56800;52.142;5.364;2022-08-01T14:40:13;27.90;38.90
69595;DHT22;56800;52.142;5.364;2022-08-01T14:42:45;27.80;38.90
69595;DHT22;56800;52.142;5.364;2022-08-01T14:45:12;27.70;39.00
69595;DHT22;56800;52.142;5.364;2022-08-01T14:47:41;27.60;39.70
69595;DHT22;56800;52.142;5.364;2022-08-01T14:50:11;27.60;39.30
69595;DHT22;56800;52.142;5.364;2022-08-01T14:52:38;27.60;39.70
69595;DHT22;56800;52.142;5.364;2022-08-01T14:55:10;27.60;40.50
69595;DHT22;56800;52.142;5.364;2022-08-01T14:57:38;27.60;39.30
69595;DHT22;56800;52.142;5.364;2022-08-01T15:00:07;27.60;38.60
69595;DHT22;56800;52.142;5.364;2022-08-01T15:02:39;27.50;37.50
69595;DHT22;56800;52.142;5.364;2022-08-01T15:05:06;27.50;37.00
69595;DHT22;56800;52.142;5.364;2022-08-01T15:07:34;27.40;37.70
69595;DHT22;56800;52.142;5.364;2022-08-01T15:10:09;27.40;38.90
69595;DHT22;56800;52.142;5.364;2022-08-01T15:12:36;27.40;37.90
69595;DHT22;56800;52.142;5.364;2022-08-01T15:15:16;27.30;37.10
69595;DHT22;56800;52.142;5.364;2022-08-01T15:17:42;27.10;37.00
69595;DHT22;56800;52.142;5.364;2022-08-01T15:20:09;26.90;37.90
69595;DHT22;56800;52.142;5.364;2022-08-01T15:22:36;26.90;38.40
69595;DHT22;56800;52.142;5.364;2022-08-01T15:25:03;26.90;37.60
69595;DHT22;56800;52.142;5.364;2022-08-01T15:27:30;26.90;37.30
69595;DHT22;56800;52.142;5.364;2022-08-01T15:29:57;26.90;36.70
69595;DHT22;56800;52.142;5.364;2022-08-01T15:32:23;26.80;36.30
69595;DHT22;56800;52.142;5.364;2022-08-01T15:34:50;26.80;36.60
69595;DHT22;56800;52.142;5.364;2022-08-01T15:37:20;26.70;36.70
69595;DHT22;56800;52.142;5.364;2022-08-01T15:39:47;26.60;37.30
69595;DHT22;56800;52.142;5.364;2022-08-01T15:42:16;26.50;36.70
69595;DHT22;56800;52.142;5.364;2022-08-01T15:44:52;26.40;36.00
69595;DHT22;56800;52.142;5.364;2022-08-01T15:47:19;26.30;35.50
69595;DHT22;56800;52.142;5.364;2022-08-01T15:49:48;26.30;35.20
69595;DHT22;56800;52.142;5.364;2022-08-01T15:52:18;26.20;36.20
69595;DHT22;56800;52.142;5.364;2022-08-01T15:54:48;26.20;35.90
69595;DHT22;56800;52.142;5.364;2022-08-01T15:57:15;26.20;35.60
69595;DHT22;56800;52.142;5.364;2022-08-01T15:59:42;26.00;35.50
69595;DHT22;56800;52.142;5.364;2022-08-01T16:02:08;26.10;36.70
69595;DHT22;56800;52.142;5.364;2022-08-01T16:04:36;26.10;36.70
69595;DHT22;56800;52.142;5.364;2022-08-01T16:07:04;26.00;36.90
69595;DHT22;56800;52.142;5.364;2022-08-01T16:09:31;26.10;37.90
69595;DHT22;56800;52.142;5.364;2022-08-01T16:11:58;26.00;37.40
69595;DHT22;56800;52.142;5.364;2022-08-01T16:14:24;26.10;37.50
69595;DHT22;56800;52.142;5.364;2022-08-01T16:16:51;26.10;37.60
69595;DHT22;56800;52.142;5.364;2022-08-01T16:19:20;26.00;37.60
69595;DHT22;56800;52.142;5.364;2022-08-01T16:21:47;26.00;37.90
69595;DHT22;56800;52.142;5.364;2022-08-01T16:24:14;26.10;38.50
69595;DHT22;56800;52.142;5.364;2022-08-01T16:26:41;26.00;38.50
69595;DHT22;56800;52.142;5.364;2022-08-01T16:29:08;26.00;38.70
69595;DHT22;56800;52.142;5.364;2022-08-01T16:31:35;26.00;38.80
69595;DHT22;56800;52.142;5.364;2022-08-01T16:34:17;25.90;39.80
69595;DHT22;56800;52.142;5.364;2022-08-01T16:36:47;25.90;39.60
69595;DHT22;56800;52.142;5.364;2022-08-01T16:39:15;25.90;39.70
69595;DHT22;56800;52.142;5.364;2022-08-01T16:41:48;25.90;40.20
69595;DHT22;56800;52.142;5.364;2022-08-01T16:44:23;25.90;40.20
69595;DHT22;56800;52.142;5.364;2022-08-01T16:47:01;25.90;41.80
69595;DHT22;56800;52.142;5.364;2022-08-01T16:49:27;25.80;39.90
69595;DHT22;56800;52.142;5.364;2022-08-01T16:51:54;25.90;39.70
69595;DHT22;56800;52.142;5.364;2022-08-01T16:54:21;25.90;39.90
69595;DHT22;56800;52.142;5.364;2022-08-01T16:56:51;25.80;39.00
69595;DHT22;56800;52.142;5.364;2022-08-01T16:59:18;25.80;39.40
69595;DHT22;56800;52.142;5.364;2022-08-01T17:01:45;25.80;39.60
69595;DHT22;56800;52.142;5.364;2022-08-01T17:04:27;25.80;38.40
69595;DHT22;56800;52.142;5.364;2022-08-01T17:06:53;25.70;38.90
69595;DHT22;56800;52.142;5.364;2022-08-01T17:09:20;25.70;39.20
69595;DHT22;56800;52.142;5.364;2022-08-01T17:11:51;25.70;39.30
69595;DHT22;56800;52.142;5.364;2022-08-01T17:14:23;25.70;39.40
69595;DHT22;56800;52.142;5.364;2022-08-01T17:16:50;25.60;39.90
69595;DHT22;56800;52.142;5.364;2022-08-01T17:19:16;25.60;39.60
69595;DHT22;56800;52.142;5.364;2022-08-01T17:21:43;25.60;39.60
69595;DHT22;56800;52.142;5.364;2022-08-01T17:24:09;25.60;39.50
69595;DHT22;56800;52.142;5.364;2022-08-01T17:26:42;25.50;40.00
69595;DHT22;56800;52.142;5.364;2022-08-01T17:29:08;25.50;40.60
69595;DHT22;56800;52.142;5.364;2022-08-01T17:31:35;25.50;40.90
69595;DHT22;56800;52.142;5.364;2022-08-01T17:34:02;25.40;41.00
69595;DHT22;56800;52.142;5.364;2022-08-01T17:36:28;25.30;41.40
69595;DHT22;56800;52.142;5.364;2022-08-01T17:38:57;25.30;41.90
69595;DHT22;56800;52.142;5.364;2022-08-01T17:41:25;25.20;41.50
69595;DHT22;56800;52.142;5.364;2022-08-01T17:43:51;25.20;41.00
69595;DHT22;56800;52.142;5.364;2022-08-01T17:46:18;25.10;40.70
69595;DHT22;56800;52.142;5.364;2022-08-01T17:48:45;25.00;41.70
69595;DHT22;56800;52.142;5.364;2022-08-01T17:51:12;24.90;41.90
69595;DHT22;56800;52.142;5.364;2022-08-01T17:53:39;24.80;41.90
69595;DHT22;56800;52.142;5.364;2022-08-01T17:56:26;24.70;41.90
69595;DHT22;56800;52.142;5.364;2022-08-01T17:58:52;24.60;42.00
69595;DHT22;56800;52.142;5.364;2022-08-01T18:01:22;24.50;42.40
69595;DHT22;56800;52.142;5.364;2022-08-01T18:03:52;24.40;42.70
69595;DHT22;56800;52.142;5.364;2022-08-01T18:06:19;24.30;43.30
69595;DHT22;56800;52.142;5.364;2022-08-01T18:08:49;24.20;43.70
69595;DHT22;56800;52.142;5.364;2022-08-01T18:11:22;24.10;43.70
69595;DHT22;56800;52.142;5.364;2022-08-01T18:13:52;24.00;44.20
69595;DHT22;56800;52.142;5.364;2022-08-01T18:16:19;23.90;44.30
69595;DHT22;56800;52.142;5.364;2022-08-01T18:18:45;23.80;44.60
69595;DHT22;56800;52.142;5.364;2022-08-01T18:21:13;23.70;44.80
69595;DHT22;56800;52.142;5.364;2022-08-01T18:23:39;23.60;45.40
69595;DHT22;56800;52.142;5.364;2022-08-01T18:26:17;23.40;45.60
69595;DHT22;56800;52.142;5.364;2022-08-01T18:28:43;23.30;46.10
69595;DHT22;56800;52.142;5.364;2022-08-01T18:31:13;23.30;47.10
69595;DHT22;56800;52.142;5.364;2022-08-01T18:33:42;23.20;47.00
69595;DHT22;56800;52.142;5.364;2022-08-01T18:36:08;23.00;47.30
69595;DHT22;56800;52.142;5.364;2022-08-01T18:38:55;22.90;48.10
69595;DHT22;56800;52.142;5.364;2022-08-01T18:41:23;22.70;49.20
69595;DHT22;56800;52.142;5.364;2022-08-01T18:43:49;22.60;48.90
69595;DHT22;56800;52.142;5.364;2022-08-01T18:46:16;22.40;48.90
69595;DHT22;56800;52.142;5.364;2022-08-01T18:48:45;22.30;49.60
69595;DHT22;56800;52.142;5.364;2022-08-01T18:51:14;22.20;49.80
69595;DHT22;56800;52.142;5.364;2022-08-01T18:53:40;22.10;49.50
69595;DHT22;56800;52.142;5.364;2022-08-01T18:56:12;22.00;49.40
69595;DHT22;56800;52.142;5.364;2022-08-01T18:58:40;21.90;49.60
69595;DHT22;56800;52.142;5.364;2022-08-01T19:01:07;21.70;50.00
69595;DHT22;56800;52.142;5.364;2022-08-01T19:03:37;21.60;49.80
69595;DHT22;56800;52.142;5.364;2022-08-01T19:06:08;21.50;49.90
69595;DHT22;56800;52.142;5.364;2022-08-01T19:08:35;21.50;50.40
69595;DHT22;56800;52.142;5.364;2022-08-01T19:11:04;21.30;50.60
69595;DHT22;56800;52.142;5.364;2022-08-01T19:13:31;21.20;51.00
69595;DHT22;56800;52.142;5.364;2022-08-01T19:15:58;21.10;51.20
69595;DHT22;56800;52.142;5.364;2022-08-01T19:18:25;21.00;51.10
69595;DHT22;56800;52.142;5.364;2022-08-01T19:20:55;20.90;51.20
69595;DHT22;56800;52.142;5.364;2022-08-01T19:23:21;20.90;51.50
69595;DHT22;56800;52.142;5.364;2022-08-01T19:26:09;20.80;51.60
69595;DHT22;56800;52.142;5.364;2022-08-01T19:28:43;20.60;51.60
69595;DHT22;56800;52.142;5.364;2022-08-01T19:31:12;20.50;51.70
69595;DHT22;56800;52.142;5.364;2022-08-01T19:33:41;20.40;52.10
69595;DHT22;56800;52.142;5.364;2022-08-01T19:36:15;20.30;52.50
69595;DHT22;56800;52.142;5.364;2022-08-01T19:38:43;20.20;52.60
69595;DHT22;56800;52.142;5.364;2022-08-01T19:41:10;20.20;52.70
69595;DHT22;56800;52.142;5.364;2022-08-01T19:43:39;20.10;53.10
69595;DHT22;56800;52.142;5.364;2022-08-01T19:46:12;20.00;53.40
69595;DHT22;56800;52.142;5.364;2022-08-01T19:48:43;20.00;53.70
69595;DHT22;56800;52.142;5.364;2022-08-01T19:51:20;19.90;53.60
69595;DHT22;56800;52.142;5.364;2022-08-01T19:53:50;19.80;54.60